TimeEST,TemperatureF,Dew PointF,Humidity,Sea Level PressureIn,VisibilityMPH,Wind Direction,Wind SpeedMPH,Gust SpeedMPH,PrecipitationIn,Events,Conditions,WindDirDegrees,DateUTC
12:56 AM,23.0,19.0,85,30.18,8.0,Calm,Calm,-,N/A,,Clear,0,2012-11-06 05:56:00
1:56 AM,24.1,19.9,84,30.17,7.0,Calm,Calm,-,N/A,,Clear,0,2012-11-06 06:56:00
2:56 AM,23.0,19.0,85,30.14,7.0,SSE,4.6,-,N/A,,Clear,160,2012-11-06 07:56:00
3:56 AM,25.0,21.9,88,30.14,9.0,Calm,Calm,-,N/A,,Clear,0,2012-11-06 08:56:00
4:56 AM,21.0,18.0,88,30.13,6.0,SE,3.5,-,N/A,,Clear,130,2012-11-06 09:56:00
5:56 AM,23.0,19.9,88,30.12,7.0,SE,4.6,-,N/A,,Clear,130,2012-11-06 10:56:00
6:56 AM,21.0,17.1,85,30.12,6.0,Calm,Calm,-,N/A,,Clear,0,2012-11-06 11:56:00
7:56 AM,19.0,17.1,92,30.13,5.0,Calm,Calm,-,N/A,,Clear,0,2012-11-06 12:56:00
8:56 AM,28.0,24.1,85,30.13,6.0,Calm,Calm,-,N/A,,Mostly Cloudy,0,2012-11-06 13:56:00
9:56 AM,32.0,27.0,82,30.12,8.0,SSE,6.9,-,N/A,,Overcast,150,2012-11-06 14:56:00
10:56 AM,37.0,28.0,70,30.10,10.0,SSE,10.4,-,N/A,,Overcast,160,2012-11-06 15:56:00
11:40 AM,41.0,26.6,57,30.06,10.0,SSE,10.4,-,N/A,,Overcast,150,2012-11-06 16:40:00
11:56 AM,39.0,26.1,60,30.08,10.0,ESE,9.2,-,N/A,,Overcast,120,2012-11-06 16:56:00
12:38 PM,39.2,26.6,61,30.02,10.0,SSE,10.4,-,N/A,,Overcast,150,2012-11-06 17:38:00
12:56 PM,39.9,26.1,58,30.05,10.0,SSE,10.4,-,N/A,,Overcast,150,2012-11-06 17:56:00
1:56 PM,41.0,26.1,55,30.03,10.0,South,6.9,-,N/A,,Scattered Clouds,170,2012-11-06 18:56:00
2:56 PM,43.0,25.0,49,30.01,10.0,Variable,5.8,-,N/A,,Scattered Clouds,0,2012-11-06 19:56:00
3:56 PM,43.0,26.1,51,30.00,10.0,SE,11.5,17.3,N/A,,Scattered Clouds,130,2012-11-06 20:56:00
5:56 PM,37.0,25.0,62,30.01,10.0,ESE,9.2,-,N/A,,Mostly Cloudy,120,2012-11-06 22:56:00
6:56 PM,35.1,26.1,70,30.01,10.0,ESE,8.1,-,N/A,,Mostly Cloudy,120,2012-11-06 23:56:00
7:56 PM,33.1,26.1,75,30.02,10.0,ESE,8.1,-,N/A,,Clear,120,2012-11-07 00:56:00
8:56 PM,32.0,26.1,79,30.01,10.0,ESE,6.9,-,N/A,,Scattered Clouds,120,2012-11-07 01:56:00
9:56 PM,34.0,27.0,75,30.01,10.0,ESE,4.6,-,N/A,,Overcast,110,2012-11-07 02:56:00
10:56 PM,34.0,27.0,75,29.99,10.0,East,5.8,-,N/A,,Overcast,100,2012-11-07 03:56:00
11:56 PM,34.0,27.0,75,29.98,10.0,East,4.6,-,N/A,,Overcast,90,2012-11-07 04:56:00